Terminal Aerodrome Forecast
Issued by NWS Chicago, IL

Home | Current Version | Previous Version | Text Only | Print | Product List | Glossary Off
Versions: 1 2 3 4 5 6 7 8 9 10 11 12 13 14 15 16 17 18 19 20 21

003
FTUS43 KLOT 201739
TAFRFD
TAF
KRFD 201739Z 2018/2118 28015G25KT P6SM OVC020
     FM210200 30013G19KT P6SM BKN025
     FM211200 33010G15KT P6SM BKN035=

USA.gov is the U.S. government's official web portal to all federal, state and local government web resources and services.